Time;durP1;ratioP1;P1;durP2;ratioP2;P2;SDS_P1;SDS_P2;PMS_P1;PMS_P2;Temp;Humidity;BMP_temperature;BMP_pressure;BME280_temperature;BME280_humidity;BME280_pressure;Samples;Min_cycle;Max_cycle;Signal;HPM_P1;HPM_P2
2022/05/11 00:00:42;;;;;;;;;;;20.80;44.90;;;;;;5039322;28;19931;-54
2022/05/11 00:03:09;;;;;;;;;;;20.80;44.80;;;;;;5056193;28;19927;-54
2022/05/11 00:05:35;;;;;;;;;;;20.70;44.70;;;;;;5056076;28;19974;-52
2022/05/11 00:08:03;;;;;;;;;;;20.70;44.70;;;;;;5038137;28;20285;-52
2022/05/11 00:10:30;;;;;;;;;;;20.80;44.80;;;;;;5039097;28;19927;-54
2022/05/11 00:12:58;;;;;;;;;;;20.70;44.70;;;;;;5037939;28;20014;-52
2022/05/11 00:15:25;;;;;;;;;;;20.70;44.80;;;;;;5038859;28;20250;-53
2022/05/11 00:17:52;;;;;;;;;;;20.70;44.70;;;;;;5038220;28;19927;-53
2022/05/11 00:20:19;;;;;;;;;;;20.70;44.80;;;;;;5055719;28;20007;-51
2022/05/11 00:22:45;;;;;;;;;;;20.70;44.70;;;;;;5055862;28;19927;-52
2022/05/11 00:25:12;;;;;;;;;;;20.70;44.70;;;;;;5038482;28;20019;-50
2022/05/11 00:27:39;;;;;;;;;;;20.70;44.70;;;;;;5037404;28;19921;-54
2022/05/11 00:30:08;;;;;;;;;;;20.70;44.70;;;;;;5055619;28;19920;-52
2022/05/11 00:32:34;;;;;;;;;;;20.70;44.70;;;;;;5037560;28;20265;-54
2022/05/11 00:35:01;;;;;;;;;;;20.70;44.70;;;;;;5055938;28;19978;-52
2022/05/11 00:37:28;;;;;;;;;;;20.70;44.70;;;;;;5037379;28;19924;-51
2022/05/11 00:39:54;;;;;;;;;;;20.70;44.70;;;;;;5037128;28;19963;-49
2022/05/11 00:42:21;;;;;;;;;;;20.70;44.70;;;;;;5037965;28;19927;-48
2022/05/11 00:44:48;;;;;;;;;;;20.70;44.70;;;;;;5037045;28;19920;-55
2022/05/11 00:47:18;;;;;;;;;;;20.70;44.70;;;;;;5037516;28;20269;-52
2022/05/11 00:49:45;;;;;;;;;;;20.70;44.70;;;;;;5037941;28;19921;-51
2022/05/11 00:52:13;;;;;;;;;;;20.70;44.70;;;;;;5037237;28;20270;-53
2022/05/11 00:54:43;;;;;;;;;;;20.70;44.70;;;;;;5055268;28;19959;-50
2022/05/11 00:57:12;;;;;;;;;;;20.70;44.70;;;;;;5037560;28;20436;-50
2022/05/11 00:59:39;;;;;;;;;;;20.70;44.70;;;;;;5037140;28;19921;-54
2022/05/11 01:02:06;;;;;;;;;;;20.70;44.70;;;;;;5037337;28;19960;-52
2022/05/11 01:04:34;;;;;;;;;;;20.70;44.70;;;;;;5037488;28;19925;-48
2022/05/11 01:07:01;;;;;;;;;;;20.70;44.70;;;;;;5054973;28;20003;-53
2022/05/11 01:09:28;;;;;;;;;;;20.70;44.70;;;;;;5054941;28;19927;-51
2022/05/11 01:11:55;;;;;;;;;;;20.70;44.70;;;;;;5036687;28;19921;-55
2022/05/11 01:14:22;;;;;;;;;;;20.70;44.70;;;;;;5055042;28;19928;-54
2022/05/11 01:16:49;;;;;;;;;;;20.70;44.70;;;;;;5036975;28;20373;-50
2022/05/11 01:19:16;;;;;;;;;;;20.70;44.70;;;;;;5036675;28;19935;-50
2022/05/11 01:21:46;;;;;;;;;;;20.70;44.70;;;;;;5036767;28;20006;-49
2022/05/11 01:24:32;;;;;;;;;;;20.70;44.70;;;;;;5037344;28;19964;-53
2022/05/11 01:26:59;;;;;;;;;;;20.70;44.70;;;;;;5036486;28;20317;-53
2022/05/11 01:29:26;;;;;;;;;;;20.70;44.70;;;;;;5036597;28;20366;-49
2022/05/11 01:31:52;;;;;;;;;;;20.70;44.70;;;;;;5054484;28;20019;-49
2022/05/11 01:34:20;;;;;;;;;;;20.70;44.70;;;;;;5036602;28;19956;-53
2022/05/11 01:36:47;;;;;;;;;;;20.70;44.70;;;;;;5054310;28;20426;-50
2022/05/11 01:39:14;;;;;;;;;;;20.70;44.70;;;;;;5037122;28;20378;-53
2022/05/11 01:41:42;;;;;;;;;;;20.70;44.70;;;;;;5054432;28;19921;-52
2022/05/11 01:44:10;;;;;;;;;;;20.70;44.70;;;;;;5016852;28;20023;-53
2022/05/11 01:46:38;;;;;;;;;;;20.70;44.70;;;;;;5034280;28;19960;-51
2022/05/11 01:49:05;;;;;;;;;;;20.70;44.70;;;;;;5016737;28;19976;-52
2022/05/11 01:51:31;;;;;;;;;;;20.70;44.70;;;;;;5016600;28;19921;-54
2022/05/11 01:53:58;;;;;;;;;;;20.70;44.70;;;;;;5034084;28;20278;-54
2022/05/11 01:56:25;;;;;;;;;;;20.70;44.70;;;;;;5016324;28;20313;-52
2022/05/11 01:58:53;;;;;;;;;;;20.70;44.70;;;;;;5033420;28;20365;-54
2022/05/11 02:01:21;;;;;;;;;;;20.70;44.70;;;;;;5016818;28;19921;-51
2022/05/11 02:07:49;;;;;;;;;;;20.70;44.70;;;;;;5034217;28;20018;-50
2022/05/11 02:09:37;;;;;;;;;;;20.70;44.70;;;;;;5016419;28;20002;-50
2022/05/11 02:12:04;;;;;;;;;;;20.70;44.80;;;;;;5016377;28;19921;-55
2022/05/11 02:14:32;;;;;;;;;;;20.70;44.70;;;;;;5016206;28;19921;-50
2022/05/11 02:16:59;;;;;;;;;;;20.70;44.80;;;;;;5016992;28;19921;-48
2022/05/11 02:19:27;;;;;;;;;;;20.70;44.80;;;;;;5016188;28;19921;-51
2022/05/11 02:21:53;;;;;;;;;;;20.70;44.80;;;;;;5034056;28;19958;-53
2022/05/11 02:24:20;;;;;;;;;;;20.70;44.80;;;;;;5034004;28;20274;-48
2022/05/11 02:26:47;;;;;;;;;;;20.70;44.80;;;;;;5017279;28;19957;-51
2022/05/11 02:29:13;;;;;;;;;;;20.70;44.80;;;;;;5016929;28;19925;-52
2022/05/11 02:31:41;;;;;;;;;;;20.70;44.80;;;;;;5015872;28;19971;-54
2022/05/11 02:35:12;;;;;;;;;;;20.70;44.80;;;;;;5033706;28;19987;-50
2022/05/11 02:36:55;;;;;;;;;;;20.70;44.80;;;;;;5015759;28;20282;-50
2022/05/11 02:39:21;;;;;;;;;;;20.70;44.80;;;;;;5016733;28;20012;-53
2022/05/11 02:41:48;;;;;;;;;;;20.70;44.80;;;;;;5016653;28;19921;-49
2022/05/11 02:44:15;;;;;;;;;;;20.70;44.80;;;;;;5016741;28;19957;-51
2022/05/11 02:46:43;;;;;;;;;;;20.70;44.80;;;;;;5033689;28;19928;-52
2022/05/11 02:49:09;;;;;;;;;;;20.70;44.80;;;;;;5016711;28;19956;-51
2022/05/11 02:51:36;;;;;;;;;;;20.70;44.80;;;;;;5033749;28;19921;-48
2022/05/11 02:54:03;;;;;;;;;;;20.70;44.80;;;;;;5016723;28;19921;-54
2022/05/11 02:56:29;;;;;;;;;;;20.70;44.80;;;;;;5033919;28;19921;-50
2022/05/11 02:58:56;;;;;;;;;;;20.70;44.80;;;;;;5016407;28;19964;-50
2022/05/11 03:01:22;;;;;;;;;;;20.60;44.80;;;;;;5016382;28;19979;-52
2022/05/11 03:03:50;;;;;;;;;;;20.70;45.40;;;;;;5033577;28;19921;-50
2022/05/11 03:06:17;;;;;;;;;;;20.70;44.80;;;;;;5015795;28;19975;-52
2022/05/11 03:08:44;;;;;;;;;;;20.70;44.80;;;;;;5013797;28;20016;-53
2022/05/11 03:11:10;;;;;;;;;;;20.60;44.80;;;;;;5036341;28;19971;-51
2022/05/11 03:13:37;;;;;;;;;;;20.70;44.90;;;;;;5019582;28;19975;-53
2022/05/11 03:16:04;;;;;;;;;;;20.70;44.80;;;;;;5037120;28;19932;-50
2022/05/11 03:18:31;;;;;;;;;;;20.70;44.90;;;;;;5019410;28;19928;-50
2022/05/11 03:20:59;;;;;;;;;;;20.70;44.90;;;;;;5019145;28;20365;-48
2022/05/11 03:23:27;;;;;;;;;;;20.70;44.90;;;;;;5019267;28;20385;-55
2022/05/11 03:25:53;;;;;;;;;;;20.70;44.80;;;;;;5020141;28;19972;-51
2022/05/11 03:28:20;;;;;;;;;;;20.70;44.90;;;;;;5018982;28;19962;-55
2022/05/11 03:30:46;;;;;;;;;;;20.60;44.80;;;;;;5018826;28;20274;-53
2022/05/11 03:35:59;;;;;;;;;;;20.70;44.90;;;;;;5036410;28;19921;-55
2022/05/11 03:38:25;;;;;;;;;;;20.70;44.90;;;;;;5019265;28;20294;-50
2022/05/11 03:40:52;;;;;;;;;;;20.70;44.90;;;;;;5019011;28;19921;-53
2022/05/11 03:43:19;;;;;;;;;;;20.70;44.90;;;;;;5035218;28;19956;-48
2022/05/11 03:45:45;;;;;;;;;;;20.70;44.90;;;;;;5019105;28;19925;-50
2022/05/11 03:48:12;;;;;;;;;;;20.70;44.90;;;;;;5018923;28;20370;-52
2022/05/11 03:50:39;;;;;;;;;;;20.70;44.90;;;;;;5019274;28;20420;-53
2022/05/11 03:53:07;;;;;;;;;;;20.70;44.90;;;;;;5036217;28;20262;-50
2022/05/11 03:55:33;;;;;;;;;;;20.70;44.90;;;;;;5018666;28;20438;-53
2022/05/11 03:58:01;;;;;;;;;;;20.60;44.80;;;;;;5018494;28;19921;-53
2022/05/11 04:00:28;;;;;;;;;;;20.70;44.90;;;;;;5038927;28;20256;-50
2022/05/11 04:02:55;;;;;;;;;;;20.70;44.90;;;;;;5038653;28;19963;-53
2022/05/11 04:05:22;;;;;;;;;;;20.70;45.00;;;;;;5038669;28;20015;-53
2022/05/11 04:07:49;;;;;;;;;;;20.60;44.90;;;;;;5038344;28;19967;-53
2022/05/11 04:10:17;;;;;;;;;;;20.70;45.00;;;;;;5038863;28;20007;-50
2022/05/11 04:12:44;;;;;;;;;;;20.70;45.00;;;;;;5038396;28;19924;-50
2022/05/11 04:15:11;;;;;;;;;;;20.70;45.00;;;;;;5055821;28;20019;-52
2022/05/11 04:17:37;;;;;;;;;;;20.60;44.90;;;;;;5056115;28;19921;-49
2022/05/11 04:20:04;;;;;;;;;;;20.70;45.00;;;;;;5038150;28;19924;-52
2022/05/11 04:22:31;;;;;;;;;;;20.60;44.90;;;;;;5038366;28;20381;-48
2022/05/11 04:24:58;;;;;;;;;;;20.70;45.00;;;;;;5055439;28;19921;-50
2022/05/11 04:27:26;;;;;;;;;;;20.60;44.90;;;;;;5055692;28;19920;-50
2022/05/11 04:29:53;;;;;;;;;;;20.60;44.90;;;;;;5055882;28;19921;-52
2022/05/11 04:32:19;;;;;;;;;;;20.60;44.90;;;;;;5037755;28;19924;-48
2022/05/11 04:34:46;;;;;;;;;;;20.60;44.90;;;;;;5038238;28;19920;-50
2022/05/11 04:37:14;;;;;;;;;;;20.60;44.90;;;;;;5038289;28;19943;-52
2022/05/11 04:39:41;;;;;;;;;;;20.60;44.90;;;;;;5037681;28;19921;-52
2022/05/11 04:42:08;;;;;;;;;;;20.60;44.90;;;;;;5036970;28;19921;-53
2022/05/11 04:44:36;;;;;;;;;;;20.60;44.90;;;;;;5037891;28;19924;-53
2022/05/11 04:47:06;;;;;;;;;;;20.60;44.90;;;;;;5055307;28;20018;-55
2022/05/11 04:49:32;;;;;;;;;;;20.60;44.90;;;;;;5055173;28;19920;-54
2022/05/11 04:51:59;;;;;;;;;;;20.70;45.00;;;;;;5037624;28;20314;-48
2022/05/11 04:54:26;;;;;;;;;;;20.60;44.90;;;;;;5038324;28;19925;-52
2022/05/11 04:56:53;;;;;;;;;;;20.70;45.00;;;;;;5037269;28;19971;-51
2022/05/11 04:59:21;;;;;;;;;;;20.60;44.90;;;;;;5020866;28;19921;-51
2022/05/11 05:01:49;;;;;;;;;;;20.70;45.00;;;;;;5037100;28;19927;-53
2022/05/11 05:04:16;;;;;;;;;;;20.60;44.90;;;;;;5037941;28;19956;-51
2022/05/11 05:06:43;;;;;;;;;;;20.60;44.90;;;;;;5054764;28;19928;-55
2022/05/11 05:09:09;;;;;;;;;;;20.60;44.90;;;;;;5051850;28;19920;-48
2022/05/11 05:11:36;;;;;;;;;;;20.60;44.90;;;;;;5032687;28;19925;-49
2022/05/11 05:14:04;;;;;;;;;;;20.70;45.00;;;;;;5017284;28;19921;-49
2022/05/11 05:16:31;;;;;;;;;;;20.60;44.90;;;;;;5033753;28;19921;-51
2022/05/11 05:18:59;;;;;;;;;;;20.60;44.90;;;;;;5034739;28;19921;-51
2022/05/11 05:21:26;;;;;;;;;;;20.70;45.00;;;;;;5017708;28;19927;-50
2022/05/11 05:23:53;;;;;;;;;;;20.60;44.90;;;;;;5034692;28;19921;-52
2022/05/11 05:26:19;;;;;;;;;;;20.60;44.90;;;;;;5017585;28;19921;-49
2022/05/11 05:31:30;;;;;;;;;;;20.60;45.00;;;;;;5036639;28;19928;-53
2022/05/11 05:33:59;;;;;;;;;;;20.60;45.00;;;;;;5015982;28;20269;-55
2022/05/11 05:36:28;;;;;;;;;;;20.60;45.00;;;;;;5016735;28;19928;-55
2022/05/11 05:38:55;;;;;;;;;;;20.60;45.10;;;;;;5016754;28;19929;-48
2022/05/11 05:41:21;;;;;;;;;;;20.70;45.20;;;;;;5017110;28;20315;-51
2022/05/11 05:43:48;;;;;;;;;;;20.70;45.30;;;;;;5016943;28;19928;-52
2022/05/11 05:46:15;;;;;;;;;;;20.60;45.20;;;;;;5034606;28;19945;-50
2022/05/11 05:48:42;;;;;;;;;;;20.60;45.20;;;;;;5017599;28;19975;-52
2022/05/11 05:51:09;;;;;;;;;;;20.60;45.20;;;;;;5017072;28;19921;-50
2022/05/11 05:53:36;;;;;;;;;;;20.70;45.30;;;;;;5016517;28;19963;-53
2022/05/11 05:56:03;;;;;;;;;;;20.70;45.30;;;;;;5016990;28;19928;-53
2022/05/11 05:58:30;;;;;;;;;;;20.60;45.20;;;;;;5034552;28;20273;-50
2022/05/11 06:00:56;;;;;;;;;;;20.60;45.10;;;;;;5016611;28;19928;-50
2022/05/11 06:03:24;;;;;;;;;;;20.60;45.10;;;;;;5028154;28;19921;-48
2022/05/11 06:05:50;;;;;;;;;;;20.60;45.00;;;;;;5037044;28;19921;-54
2022/05/11 06:08:17;;;;;;;;;;;20.60;45.00;;;;;;5042228;28;19921;-52
2022/05/11 06:10:45;;;;;;;;;;;20.70;45.10;;;;;;5016131;28;20348;-52
2022/05/11 06:13:12;;;;;;;;;;;20.70;45.10;;;;;;5034019;28;19940;-52
2022/05/11 06:15:39;;;;;;;;;;;20.70;45.10;;;;;;5034070;28;20281;-49
2022/05/11 06:18:06;;;;;;;;;;;20.60;45.00;;;;;;5016135;28;19925;-49
2022/05/11 06:20:33;;;;;;;;;;;20.60;44.90;;;;;;5034103;28;19943;-48
2022/05/11 06:23:00;;;;;;;;;;;20.70;45.10;;;;;;5016260;28;19921;-52
2022/05/11 06:25:27;;;;;;;;;;;20.70;45.00;;;;;;5016251;28;19921;-54
2022/05/11 06:27:55;;;;;;;;;;;20.70;45.00;;;;;;5016473;28;19921;-51
2022/05/11 06:30:21;;;;;;;;;;;20.70;45.00;;;;;;5033728;28;20020;-54
2022/05/11 06:32:48;;;;;;;;;;;20.60;45.00;;;;;;5014243;28;20271;-50
2022/05/11 06:35:15;;;;;;;;;;;20.70;45.00;;;;;;5033996;28;20259;-50
2022/05/11 06:37:42;;;;;;;;;;;20.70;45.00;;;;;;5032260;28;20079;-55
2022/05/11 06:40:09;;;;;;;;;;;20.70;45.10;;;;;;5033560;28;20031;-53
2022/05/11 06:42:36;;;;;;;;;;;20.70;45.10;;;;;;5032606;28;19925;-53
2022/05/11 06:45:05;;;;;;;;;;;20.70;45.00;;;;;;5036564;28;20373;-54
2022/05/11 06:47:32;;;;;;;;;;;20.70;45.00;;;;;;5019864;28;19921;-52
2022/05/11 06:49:58;;;;;;;;;;;20.70;45.00;;;;;;5056342;28;19921;-50
2022/05/11 06:52:25;;;;;;;;;;;20.60;44.90;;;;;;5057712;28;19921;-52
2022/05/11 07:00:21;;;;;;;;;;;20.70;45.10;;;;;;5057110;28;19920;-49
2022/05/11 07:02:48;;;;;;;;;;;20.70;45.00;;;;;;5056263;28;19943;-53
2022/05/11 07:05:15;;;;;;;;;;;20.70;45.10;;;;;;5056147;28;19927;-51
2022/05/11 07:07:41;;;;;;;;;;;20.70;45.10;;;;;;5039081;28;19921;-54
2022/05/11 07:10:08;;;;;;;;;;;20.70;45.10;;;;;;5056110;28;20362;-51
2022/05/11 07:12:37;;;;;;;;;;;20.70;45.10;;;;;;5056846;28;19920;-50
2022/05/11 07:15:06;;;;;;;;;;;20.70;45.10;;;;;;5038904;28;19927;-53
2022/05/11 07:17:35;;;;;;;;;;;20.70;45.10;;;;;;5038596;28;20066;-54
2022/05/11 07:20:02;;;;;;;;;;;20.70;45.20;;;;;;5039355;28;19921;-52
2022/05/11 07:22:29;;;;;;;;;;;20.70;45.40;;;;;;5048149;28;20218;-50
2022/05/11 07:24:55;;;;;;;;;;;20.70;45.30;;;;;;5035025;28;19921;-51
2022/05/11 07:27:22;;;;;;;;;;;20.70;45.40;;;;;;5019019;28;19925;-51
2022/05/11 07:29:49;;;;;;;;;;;20.70;45.40;;;;;;5019127;28;19921;-49
2022/05/11 07:32:16;;;;;;;;;;;20.70;45.40;;;;;;5036151;28;19967;-50
2022/05/11 07:34:44;;;;;;;;;;;20.70;45.30;;;;;;5018767;28;19921;-49
2022/05/11 07:37:11;;;;;;;;;;;20.70;45.30;;;;;;5018839;28;19927;-53
2022/05/11 07:39:38;;;;;;;;;;;20.70;45.40;;;;;;5018366;28;19943;-53
2022/05/11 07:42:05;;;;;;;;;;;20.70;45.30;;;;;;5036360;28;19999;-50
2022/05/11 07:44:31;;;;;;;;;;;20.70;45.30;;;;;;5038206;28;20414;-54
2022/05/11 07:46:58;;;;;;;;;;;20.70;45.30;;;;;;5038788;28;20398;-49
2022/05/11 07:49:25;;;;;;;;;;;20.70;45.40;;;;;;5037945;28;19966;-49
2022/05/11 07:51:53;;;;;;;;;;;20.80;45.50;;;;;;5038076;28;19921;-54
2022/05/11 07:54:19;;;;;;;;;;;20.80;45.50;;;;;;5037813;28;19928;-54
2022/05/11 08:02:15;;;;;;;;;;;20.80;45.50;;;;;;5055760;28;20270;-54
2022/05/11 08:04:42;;;;;;;;;;;20.80;45.50;;;;;;5038141;28;19971;-56
2022/05/11 08:07:10;;;;;;;;;;;20.80;45.50;;;;;;5037535;28;20231;-49
2022/05/11 08:09:37;;;;;;;;;;;20.80;45.60;;;;;;5038074;28;20319;-50
2022/05/11 08:12:04;;;;;;;;;;;20.80;45.50;;;;;;5055425;28;20338;-48
2022/05/11 08:14:30;;;;;;;;;;;20.80;45.60;;;;;;5037266;28;20457;-55
2022/05/11 08:16:57;;;;;;;;;;;20.80;45.60;;;;;;5055059;28;19925;-54
2022/05/11 08:19:24;;;;;;;;;;;20.80;45.60;;;;;;5055178;28;19921;-51
2022/05/11 08:21:52;;;;;;;;;;;20.80;45.60;;;;;;5037364;28;19920;-52
2022/05/11 08:24:20;;;;;;;;;;;20.80;45.60;;;;;;5037146;28;19947;-50
2022/05/11 08:26:47;;;;;;;;;;;20.80;45.60;;;;;;5055422;28;19948;-55
2022/05/11 08:33:18;;;;;;;;;;;20.80;45.60;;;;;;5037080;28;19928;-53
2022/05/11 08:34:45;;;;;;;;;;;20.90;45.70;;;;;;5052186;28;19921;-54
2022/05/11 08:37:12;;;;;;;;;;;20.80;45.60;;;;;;5036971;28;19943;-58
2022/05/11 08:39:40;;;;;;;;;;;20.90;45.80;;;;;;5037530;28;19990;-57
2022/05/11 08:42:07;;;;;;;;;;;20.90;45.70;;;;;;5037633;28;19928;-58
2022/05/11 08:44:34;;;;;;;;;;;20.90;45.70;;;;;;5037220;28;19953;-58
2022/05/11 08:47:03;;;;;;;;;;;20.90;45.80;;;;;;5032157;28;19959;-56
2022/05/11 08:49:33;;;;;;;;;;;20.90;46.00;;;;;;5038293;28;19921;-54
2022/05/11 08:52:01;;;;;;;;;;;20.90;45.80;;;;;;5020481;28;19958;-57
2022/05/11 08:54:31;;;;;;;;;;;20.90;45.80;;;;;;5016870;28;20393;-56
2022/05/11 08:56:59;;;;;;;;;;;20.90;45.90;;;;;;5034524;28;19921;-56
2022/05/11 08:59:26;;;;;;;;;;;20.90;45.80;;;;;;5014915;28;20262;-55
2022/05/11 09:01:55;;;;;;;;;;;20.90;45.80;;;;;;5039787;28;19927;-58
2022/05/11 09:04:23;;;;;;;;;;;20.90;45.90;;;;;;5054613;28;19928;-55
2022/05/11 09:06:50;;;;;;;;;;;20.90;45.80;;;;;;5036738;23;19913;-66
2022/05/11 09:09:17;;;;;;;;;;;20.90;45.80;;;;;;5035594;28;20058;-65
2022/05/11 09:11:45;;;;;;;;;;;20.90;45.90;;;;;;5023187;28;19936;-65
2022/05/11 09:14:14;;;;;;;;;;;20.80;45.80;;;;;;5023412;28;19925;-65
2022/05/11 09:16:42;;;;;;;;;;;20.90;45.90;;;;;;5041335;28;20340;-65
2022/05/11 09:19:13;;;;;;;;;;;20.90;45.80;;;;;;5026896;28;20342;-65
2022/05/11 09:24:14;;;;;;;;;;;20.90;45.80;;;;;;5060943;23;19927;-53
2022/05/11 09:26:41;;;;;;;;;;;20.90;45.80;;;;;;5035947;28;19928;-55
2022/05/11 09:29:15;;;;;;;;;;;20.90;45.90;;;;;;5036071;28;19927;-53
2022/05/11 09:31:41;;;;;;;;;;;20.90;45.80;;;;;;5037028;28;20380;-55
2022/05/11 09:34:09;;;;;;;;;;;20.90;45.80;;;;;;5053764;28;19921;-55
2022/05/11 09:36:38;;;;;;;;;;;20.90;45.80;;;;;;5052136;28;20382;-49
2022/05/11 09:39:05;;;;;;;;;;;21.00;45.90;;;;;;5054245;28;19931;-55
2022/05/11 09:41:33;;;;;;;;;;;21.00;45.90;;;;;;5054152;28;19921;-55
2022/05/11 09:44:00;;;;;;;;;;;21.00;45.90;;;;;;5054235;28;19939;-51
2022/05/11 09:46:30;;;;;;;;;;;21.00;45.90;;;;;;5036175;28;20028;-53
2022/05/11 09:48:58;;;;;;;;;;;21.00;45.90;;;;;;5030524;28;19952;-50
2022/05/11 09:51:25;;;;;;;;;;;21.00;45.90;;;;;;5016235;28;19921;-53
2022/05/11 09:53:53;;;;;;;;;;;21.00;45.90;;;;;;5016559;28;19928;-55
2022/05/11 09:56:21;;;;;;;;;;;21.00;45.80;;;;;;5032156;28;19921;-55
2022/05/11 09:58:48;;;;;;;;;;;21.00;45.80;;;;;;5015429;28;19927;-54
2022/05/11 10:01:15;;;;;;;;;;;21.00;45.80;;;;;;5032432;28;19928;-51
2022/05/11 10:03:47;;;;;;;;;;;21.00;45.90;;;;;;5016494;28;19928;-53
2022/05/11 10:06:14;;;;;;;;;;;21.00;45.90;;;;;;5015717;28;19922;-54
2022/05/11 10:08:41;;;;;;;;;;;21.00;45.90;;;;;;5033882;28;20330;-50
2022/05/11 10:11:10;;;;;;;;;;;21.00;45.90;;;;;;5032929;28;19921;-55
2022/05/11 10:13:37;;;;;;;;;;;21.00;45.80;;;;;;5033651;28;19922;-54
2022/05/11 10:21:53;;;;;;;;;;;21.00;45.90;;;;;;5019036;28;19928;-56
2022/05/11 10:24:22;;;;;;;;;;;21.10;46.00;;;;;;5037772;28;19921;-54
2022/05/11 10:26:50;;;;;;;;;;;21.00;46.00;;;;;;5037941;28;19928;-52
2022/05/11 10:29:19;;;;;;;;;;;21.10;46.10;;;;;;5020289;28;20337;-53
2022/05/11 10:31:46;;;;;;;;;;;21.10;46.00;;;;;;5019625;28;19921;-54
2022/05/11 10:34:16;;;;;;;;;;;21.10;46.40;;;;;;5019723;28;20364;-56
2022/05/11 10:36:45;;;;;;;;;;;21.10;46.00;;;;;;5037569;28;19928;-55
2022/05/11 10:39:18;;;;;;;;;;;21.10;46.10;;;;;;5037366;28;19932;-53
2022/05/11 10:41:46;;;;;;;;;;;21.10;46.10;;;;;;5019538;28;20362;-54
2022/05/11 10:44:17;;;;;;;;;;;21.10;46.00;;;;;;5035141;28;19968;-53
2022/05/11 10:46:45;;;;;;;;;;;21.10;46.10;;;;;;5037214;28;19928;-52
2022/05/11 10:49:26;;;;;;;;;;;21.10;46.10;;;;;;5019359;28;19925;-52
2022/05/11 10:51:57;;;;;;;;;;;21.10;46.20;;;;;;5036269;28;19979;-51
2022/05/11 10:54:25;;;;;;;;;;;21.10;46.20;;;;;;5019414;28;19921;-53
2022/05/11 10:56:53;;;;;;;;;;;21.10;46.40;;;;;;5036696;28;19921;-53
2022/05/11 10:59:30;;;;;;;;;;;21.10;46.30;;;;;;5018895;28;19921;-55
2022/05/11 11:02:01;;;;;;;;;;;21.10;46.30;;;;;;5034471;28;19944;-52
2022/05/11 11:04:35;;;;;;;;;;;21.20;46.30;;;;;;5016506;28;19999;-51
2022/05/11 11:07:13;;;;;;;;;;;21.20;46.30;;;;;;5034435;28;20007;-54
2022/05/11 11:09:41;;;;;;;;;;;21.20;46.20;;;;;;5036526;28;19991;-51
2022/05/11 11:12:13;;;;;;;;;;;21.20;46.20;;;;;;5035231;28;19921;-52
2022/05/11 11:14:42;;;;;;;;;;;21.20;46.10;;;;;;5034988;28;19968;-55
2022/05/11 11:17:09;;;;;;;;;;;21.10;46.00;;;;;;5060892;23;20289;-60
2022/05/11 11:19:37;;;;;;;;;;;21.10;46.00;;;;;;5023425;28;19925;-60
2022/05/11 11:22:05;;;;;;;;;;;21.20;46.20;;;;;;5029963;28;20031;-59
2022/05/11 11:24:32;;;;;;;;;;;21.20;46.40;;;;;;5028840;28;19931;-58
2022/05/11 11:26:59;;;;;;;;;;;21.20;46.40;;;;;;5020535;28;19929;-57
2022/05/11 11:29:27;;;;;;;;;;;21.20;46.40;;;;;;5022092;28;19929;-64
2022/05/11 11:32:21;;;;;;;;;;;21.10;46.40;;;;;;5022775;28;19929;-65
2022/05/11 11:34:52;;;;;;;;;;;21.20;46.50;;;;;;5025050;28;19968;-64
2022/05/11 11:37:41;;;;;;;;;;;21.20;46.60;;;;;;5025854;28;19926;-64
2022/05/11 11:40:28;;;;;;;;;;;21.20;46.70;;;;;;5028246;28;19948;-65
2022/05/11 11:42:54;;;;;;;;;;;21.20;46.70;;;;;;5023514;28;19926;-66
2022/05/11 11:45:40;;;;;;;;;;;21.20;46.70;;;;;;5045025;28;20021;-68
2022/05/11 11:48:16;;;;;;;;;;;21.20;46.70;;;;;;5021688;28;19933;-66
2022/05/11 11:50:45;;;;;;;;;;;21.20;46.70;;;;;;5044127;28;19936;-66
2022/05/11 11:53:13;;;;;;;;;;;21.20;46.70;;;;;;5031410;28;19964;-67
2022/05/11 11:55:40;;;;;;;;;;;21.20;46.70;;;;;;5027149;28;20030;-66
2022/05/11 11:58:13;;;;;;;;;;;21.20;46.80;;;;;;5029550;28;19975;-65
2022/05/11 12:00:59;;;;;;;;;;;21.30;46.80;;;;;;5033016;28;19925;-65
2022/05/11 12:03:26;;;;;;;;;;;21.30;46.80;;;;;;5028911;28;19979;-65
2022/05/11 12:05:55;;;;;;;;;;;21.30;46.80;;;;;;5035939;28;20027;-66
2022/05/11 12:19:16;;;;;;;;;;;21.30;46.70;;;;;;5042702;22;19956;-52
2022/05/11 12:21:58;;;;;;;;;;;21.30;46.70;;;;;;5016360;28;19931;-49
2022/05/11 12:24:27;;;;;;;;;;;21.30;46.70;;;;;;5017213;28;20043;-52
2022/05/11 12:26:54;;;;;;;;;;;21.30;46.70;;;;;;5017115;28;19971;-50
2022/05/11 12:32:07;;;;;;;;;;;21.30;46.70;;;;;;5033772;28;19975;-53
2022/05/11 12:34:39;;;;;;;;;;;21.30;46.70;;;;;;5017113;28;19921;-55
2022/05/11 12:37:12;;;;;;;;;;;21.30;46.60;;;;;;5032880;28;20015;-51
2022/05/11 12:39:39;;;;;;;;;;;21.30;46.60;;;;;;5015487;28;19921;-51
2022/05/11 12:42:06;;;;;;;;;;;21.30;46.50;;;;;;5015892;28;19948;-51
2022/05/11 12:44:35;;;;;;;;;;;21.30;46.50;;;;;;5033193;28;19960;-53
2022/05/11 12:47:02;;;;;;;;;;;21.30;46.50;;;;;;5033779;28;20259;-53
2022/05/11 12:49:29;;;;;;;;;;;21.30;46.40;;;;;;5034041;28;19922;-49
2022/05/11 12:51:56;;;;;;;;;;;21.30;46.40;;;;;;5032629;28;19931;-53
2022/05/11 12:54:25;;;;;;;;;;;21.30;46.30;;;;;;5034394;28;20024;-54
2022/05/11 12:56:56;;;;;;;;;;;21.30;46.30;;;;;;5032961;28;20428;-52
2022/05/11 12:59:24;;;;;;;;;;;21.30;46.30;;;;;;5033941;28;20032;-50
2022/05/11 13:01:51;;;;;;;;;;;21.40;46.30;;;;;;5032093;28;20363;-50
2022/05/11 13:04:18;;;;;;;;;;;21.30;46.20;;;;;;5039823;28;19953;-52
2022/05/11 13:06:45;;;;;;;;;;;21.40;46.30;;;;;;5016191;28;19921;-50
2022/05/11 13:09:14;;;;;;;;;;;21.30;46.20;;;;;;5032295;28;19947;-55
2022/05/11 13:11:42;;;;;;;;;;;21.40;46.20;;;;;;5032698;28;19931;-53
2022/05/11 13:14:11;;;;;;;;;;;21.30;46.10;;;;;;5015911;28;19968;-50
2022/05/11 13:16:38;;;;;;;;;;;21.40;46.10;;;;;;5032484;28;20428;-55
2022/05/11 13:19:06;;;;;;;;;;;21.40;46.00;;;;;;5034329;28;20115;-51
2022/05/11 13:21:35;;;;;;;;;;;21.40;46.00;;;;;;5065557;22;19947;-62
2022/05/11 13:24:05;;;;;;;;;;;21.40;45.90;;;;;;5006021;23;19929;-49
2022/05/11 13:26:34;;;;;;;;;;;21.40;45.90;;;;;;5012237;28;19926;-55
2022/05/11 13:29:09;;;;;;;;;;;21.40;45.90;;;;;;5013713;28;19922;-50
2022/05/11 13:31:36;;;;;;;;;;;21.40;45.90;;;;;;5012798;28;20012;-50
2022/05/11 13:34:04;;;;;;;;;;;21.40;45.90;;;;;;4996021;28;20035;-49
2022/05/11 13:36:38;;;;;;;;;;;21.40;45.80;;;;;;5011945;28;19964;-52
2022/05/11 13:39:18;;;;;;;;;;;21.40;45.70;;;;;;5013547;28;19979;-49
2022/05/11 13:41:56;;;;;;;;;;;21.40;45.70;;;;;;4993565;28;20023;-49
2022/05/11 13:44:28;;;;;;;;;;;21.30;45.60;;;;;;4992550;28;20424;-52
2022/05/11 13:49:40;;;;;;;;;;;21.40;45.60;;;;;;4992703;28;19922;-54
2022/05/11 13:52:09;;;;;;;;;;;21.40;45.60;;;;;;4992533;28;19922;-56
2022/05/11 13:54:40;;;;;;;;;;;21.40;45.60;;;;;;4993260;28;19922;-56
2022/05/11 13:57:07;;;;;;;;;;;21.40;45.60;;;;;;4993154;28;19957;-58
2022/05/11 13:59:43;;;;;;;;;;;21.40;45.70;;;;;;4992611;28;19921;-50
2022/05/11 14:02:09;;;;;;;;;;;21.30;45.60;;;;;;4992290;28;19937;-55
2022/05/11 14:04:36;;;;;;;;;;;21.40;45.70;;;;;;4993484;28;19957;-51
2022/05/11 14:07:04;;;;;;;;;;;21.40;45.70;;;;;;4991980;28;19922;-53
2022/05/11 14:09:32;;;;;;;;;;;21.40;45.70;;;;;;4992487;28;19988;-54
2022/05/11 14:11:59;;;;;;;;;;;21.40;45.80;;;;;;4992744;28;19929;-51
2022/05/11 14:14:26;;;;;;;;;;;21.40;45.80;;;;;;4975774;28;19968;-51
2022/05/11 14:16:54;;;;;;;;;;;21.40;45.80;;;;;;4975532;28;20037;-53
2022/05/11 14:19:20;;;;;;;;;;;21.40;45.80;;;;;;4991859;28;19921;-51
2022/05/11 14:21:47;;;;;;;;;;;21.40;45.80;;;;;;4975474;28;20012;-53
2022/05/11 14:24:14;;;;;;;;;;;21.40;45.80;;;;;;4993295;28;19928;-52
2022/05/11 14:26:42;;;;;;;;;;;21.40;45.70;;;;;;4991988;28;19922;-53
2022/05/11 14:29:09;;;;;;;;;;;21.40;45.70;;;;;;4992057;28;19969;-52
2022/05/11 14:31:35;;;;;;;;;;;21.40;45.70;;;;;;4976322;28;19925;-50
2022/05/11 14:34:03;;;;;;;;;;;21.40;45.70;;;;;;4992328;28;19941;-54
2022/05/11 14:36:30;;;;;;;;;;;21.40;45.70;;;;;;4993450;28;19930;-52
2022/05/11 14:38:57;;;;;;;;;;;21.50;45.80;;;;;;4991845;28;20455;-52
2022/05/11 14:41:24;;;;;;;;;;;21.40;45.60;;;;;;4991852;28;19928;-49
2022/05/11 14:43:51;;;;;;;;;;;21.50;45.70;;;;;;4992295;28;20016;-54
2022/05/11 14:46:19;;;;;;;;;;;21.40;45.60;;;;;;4992913;28;20264;-54
2022/05/11 14:48:47;;;;;;;;;;;21.50;45.60;;;;;;4992108;28;19926;-51
2022/05/11 14:51:15;;;;;;;;;;;21.50;45.60;;;;;;4992097;28;19922;-53
2022/05/11 14:53:45;;;;;;;;;;;21.50;45.60;;;;;;4992071;28;20288;-52
2022/05/11 14:56:12;;;;;;;;;;;21.50;45.50;;;;;;4991793;28;19922;-53
2022/05/11 15:04:08;;;;;;;;;;;21.50;45.40;;;;;;5031265;28;20226;-52
2022/05/11 15:06:37;;;;;;;;;;;21.50;45.40;;;;;;5017682;28;19921;-51
2022/05/11 15:09:03;;;;;;;;;;;21.50;45.40;;;;;;5036185;28;20039;-52
2022/05/11 15:14:14;;;;;;;;;;;21.50;45.30;;;;;;5034446;28;19921;-55
2022/05/11 15:16:44;;;;;;;;;;;21.50;45.40;;;;;;5018406;28;20405;-53